createdAt,value
2022-12-23T00:00:15.633Z,69.79
2022-12-23T00:03:20.559Z,70.10
2022-12-23T00:06:26.693Z,69.96
2022-12-23T00:09:31.260Z,69.08
2022-12-23T00:12:54.342Z,69.74
2022-12-23T00:16:12.157Z,69.14
2022-12-23T00:19:16.598Z,69.69
2022-12-23T00:22:21.258Z,68.70
2022-12-23T00:25:41.221Z,69.13
2022-12-23T00:28:49.358Z,68.58
2022-12-23T00:31:53.902Z,68.14
2022-12-23T00:34:58.339Z,69.04
2022-12-23T00:38:02.834Z,67.97
2022-12-23T00:41:33.295Z,67.54
2022-12-23T00:44:37.948Z,67.57
2022-12-23T00:48:01.741Z,67.35
2022-12-23T00:51:07.576Z,67.05
2022-12-23T00:54:12.050Z,65.86
2022-12-23T00:57:16.417Z,66.06
2022-12-23T01:00:21.493Z,66.12
2022-12-23T01:03:44.506Z,66.24
2022-12-23T01:06:49.320Z,66.69
2022-12-23T01:09:54.861Z,66.31
2022-12-23T01:12:59.113Z,67.11
2022-12-23T01:16:17.301Z,65.86
2022-12-23T01:19:22.541Z,66.69
2022-12-23T01:22:27.036Z,67.11
2022-12-23T01:25:31.970Z,66.45
2022-12-23T01:28:37.307Z,66.69
2022-12-23T01:31:42.109Z,66.13
2022-12-23T01:34:46.442Z,65.06
2022-12-23T01:37:51.130Z,64.50
2022-12-23T01:40:58.400Z,65.17
2022-12-23T01:44:02.891Z,65.11
2022-12-23T01:47:12.623Z,65.18
2022-12-23T01:50:30.727Z,65.77
2022-12-23T01:53:39.476Z,64.71
2022-12-23T01:56:44.175Z,64.29
2022-12-23T02:00:07.370Z,63.75
2022-12-23T02:03:30.526Z,63.41
2022-12-23T02:06:59.377Z,64.18
2022-12-23T02:10:05.903Z,64.28
2022-12-23T02:13:29.148Z,64.10
2022-12-23T02:17:02.416Z,62.95
2022-12-23T02:20:25.091Z,62.93
2022-12-23T02:23:38.120Z,62.98
2022-12-23T02:26:54.750Z,63.08
2022-12-23T02:30:25.171Z,63.11
2022-12-23T02:33:36.237Z,61.94
2022-12-23T02:36:59.632Z,62.08
2022-12-23T02:40:12.989Z,61.33
2022-12-23T02:43:27.120Z,61.15
2022-12-23T02:46:56.056Z,61.07
2022-12-23T02:50:08.671Z,61.16
2022-12-23T02:53:22.978Z,61.03
2022-12-23T02:56:30.844Z,60.24
2022-12-23T02:59:42.533Z,60.64
2022-12-23T03:02:48.147Z,60.36
2022-12-23T03:05:52.635Z,59.71
2022-12-23T03:09:00.081Z,60.28
2022-12-23T03:12:16.576Z,60.83
2022-12-23T03:15:39.144Z,60.38
2022-12-23T03:18:59.360Z,60.81
2022-12-23T03:22:36.033Z,61.52
2022-12-23T03:25:54.862Z,61.39
2022-12-23T03:29:26.241Z,61.19
2022-12-23T03:32:36.772Z,60.77
2022-12-23T03:36:28.563Z,61.30
2022-12-23T03:39:40.171Z,60.51
2022-12-23T03:42:47.727Z,61.10
2022-12-23T03:45:58.579Z,61.62
2022-12-23T03:49:08.978Z,61.86
2022-12-23T03:52:22.025Z,61.24
2022-12-23T03:55:42.541Z,61.12
2022-12-23T03:58:59.693Z,59.89
2022-12-23T04:02:10.223Z,59.54
2022-12-23T04:05:24.888Z,59.75
2022-12-23T04:08:38.044Z,59.62
2022-12-23T04:11:42.727Z,59.97
2022-12-23T04:14:49.686Z,61.07
2022-12-23T04:17:55.732Z,61.79
2022-12-23T04:21:00.266Z,60.93
2022-12-23T04:24:04.995Z,61.03
2022-12-23T04:27:12.080Z,61.26
2022-12-23T04:30:16.784Z,60.49
2022-12-23T04:33:22.876Z,60.19
2022-12-23T04:36:27.575Z,60.51
2022-12-23T04:39:32.074Z,61.21
2022-12-23T04:42:37.024Z,60.94
2022-12-23T04:45:41.631Z,61.77
2022-12-23T04:48:46.287Z,62.74
2022-12-23T04:51:50.880Z,62.16
2022-12-23T04:54:55.448Z,61.87
2022-12-23T04:57:59.777Z,61.70
2022-12-23T05:01:10.237Z,62.00
2022-12-23T05:04:15.927Z,62.08
2022-12-23T05:07:20.366Z,61.38
2022-12-23T05:10:24.899Z,62.04
2022-12-23T05:13:29.497Z,62.13
2022-12-23T05:16:34.851Z,61.81
2022-12-23T05:19:39.617Z,61.52
2022-12-23T05:22:44.133Z,61.62
2022-12-23T05:25:54.246Z,62.44
2022-12-23T05:28:58.578Z,61.86
2022-12-23T05:32:02.845Z,62.14
2022-12-23T05:35:08.504Z,62.99
2022-12-23T05:38:13.413Z,62.17
2022-12-23T05:41:18.526Z,61.28
2022-12-23T05:44:23.191Z,61.66
2022-12-23T05:47:27.716Z,62.29
2022-12-23T05:50:32.155Z,62.58
2022-12-23T05:53:39.215Z,62.83
2022-12-23T05:56:43.590Z,62.51
2022-12-23T05:59:48.255Z,63.40
2022-12-23T06:02:54.217Z,62.74
2022-12-23T06:05:59.030Z,62.69
2022-12-23T06:09:03.756Z,62.96
2022-12-23T06:12:09.091Z,63.37
2022-12-23T06:15:13.907Z,63.70
2022-12-23T06:18:18.769Z,63.39
2022-12-23T06:21:23.099Z,63.97
2022-12-23T06:24:27.492Z,63.80
2022-12-23T06:27:32.264Z,63.03
2022-12-23T06:30:36.657Z,63.57
2022-12-23T06:33:41.080Z,63.94
2022-12-23T06:36:47.496Z,64.78
2022-12-23T06:39:51.803Z,65.26
2022-12-23T06:42:56.143Z,65.50
2022-12-23T06:46:00.827Z,65.65
2022-12-23T06:49:12.598Z,65.14
2022-12-23T06:52:17.909Z,67.08
2022-12-23T06:55:22.425Z,67.20
2022-12-23T06:58:26.847Z,67.31
2022-12-23T07:01:31.569Z,67.36
2022-12-23T07:04:36.155Z,67.47
2022-12-23T07:07:40.367Z,66.98
2022-12-23T07:10:44.583Z,67.91
2022-12-23T07:13:49.150Z,67.84
2022-12-23T07:16:53.680Z,67.39
2022-12-23T07:19:58.395Z,67.96
2022-12-23T07:23:02.865Z,68.06
2022-12-23T07:26:07.750Z,67.57
2022-12-23T07:29:12.136Z,67.54
2022-12-23T07:32:16.610Z,67.52
2022-12-23T07:35:21.106Z,68.15
2022-12-23T07:38:25.682Z,68.19
2022-12-23T07:41:30.296Z,68.61
2022-12-23T07:44:41.307Z,68.04
2022-12-23T07:47:46.048Z,68.25
2022-12-23T07:50:50.781Z,68.44
2022-12-23T07:53:55.555Z,68.20
2022-12-23T07:57:00.254Z,68.01
2022-12-23T08:00:06.951Z,67.88
2022-12-23T08:03:19.287Z,67.80
2022-12-23T08:06:23.909Z,67.85
2022-12-23T08:09:28.432Z,67.89
2022-12-23T08:12:32.852Z,68.12
2022-12-23T08:15:37.388Z,68.17
2022-12-23T08:18:43.196Z,67.98
2022-12-23T08:21:47.509Z,68.23
2022-12-23T08:24:53.379Z,67.78
2022-12-23T08:27:58.064Z,66.99
2022-12-23T08:31:13.284Z,67.28
2022-12-23T08:34:18.300Z,67.87
2022-12-23T08:37:23.009Z,66.64
2022-12-23T08:40:27.688Z,66.86
2022-12-23T08:43:35.792Z,67.07
2022-12-23T08:46:41.554Z,66.68
2022-12-23T08:49:46.036Z,66.41
2022-12-23T08:52:50.632Z,67.07
2022-12-23T08:55:55.117Z,67.97
2022-12-23T08:58:59.474Z,67.20
2022-12-23T09:02:04.671Z,67.81
2022-12-23T09:05:10.820Z,66.99
2022-12-23T09:08:15.910Z,67.82
2022-12-23T09:11:25.433Z,67.99
2022-12-23T09:14:31.251Z,68.28
2022-12-23T09:17:35.849Z,67.85
2022-12-23T09:20:40.725Z,66.99
2022-12-23T09:23:45.479Z,67.04
2022-12-23T09:26:49.984Z,68.35
2022-12-23T09:29:54.458Z,67.92
2022-12-23T09:32:58.987Z,67.34
2022-12-23T09:36:04.549Z,67.75
2022-12-23T09:39:09.117Z,68.11
2022-12-23T09:42:41.181Z,68.04
2022-12-23T09:46:08.401Z,68.55
2022-12-23T09:49:19.865Z,68.02
2022-12-23T09:52:47.262Z,67.91
2022-12-23T09:56:17.900Z,67.62
2022-12-23T09:59:36.191Z,68.15
2022-12-23T10:02:43.994Z,68.11
2022-12-23T10:05:57.212Z,68.73
2022-12-23T10:09:16.359Z,68.04
2022-12-23T10:12:40.571Z,68.16
2022-12-23T10:15:49.676Z,68.62
2022-12-23T10:19:22.002Z,68.17
2022-12-23T10:22:44.017Z,68.00
2022-12-23T10:25:52.758Z,68.37
2022-12-23T10:29:12.827Z,68.81
2022-12-23T10:32:31.479Z,68.70
2022-12-23T10:35:46.493Z,68.16
2022-12-23T10:39:13.464Z,68.45
2022-12-23T10:42:21.132Z,68.43
2022-12-23T10:45:46.143Z,68.49
2022-12-23T10:49:10.243Z,68.33
2022-12-23T10:52:21.525Z,67.94
2022-12-23T10:55:34.525Z,67.68
2022-12-23T10:58:44.600Z,67.94
2022-12-23T11:01:56.585Z,68.02
2022-12-23T11:05:01.182Z,67.92
2022-12-23T11:08:07.101Z,68.71
2022-12-23T11:11:11.793Z,68.53
2022-12-23T11:14:33.423Z,68.02
2022-12-23T11:17:38.040Z,67.72
2022-12-23T11:20:44.827Z,68.02
2022-12-23T11:23:49.877Z,68.39
2022-12-23T11:27:06.173Z,67.67
2022-12-23T11:30:19.941Z,67.58
2022-12-23T11:33:34.323Z,68.24
2022-12-23T11:36:38.811Z,66.99
2022-12-23T11:39:47.963Z,67.99
2022-12-23T11:43:02.822Z,67.93
2022-12-23T11:46:25.983Z,67.64
2022-12-23T11:49:32.603Z,68.16
2022-12-23T11:52:37.284Z,68.41
2022-12-23T11:55:49.674Z,68.09
2022-12-23T11:59:09.626Z,68.63
2022-12-23T12:02:22.697Z,68.38
2022-12-23T12:05:31.582Z,68.55
2022-12-23T12:08:39.284Z,68.65
2022-12-23T12:11:51.179Z,68.53
2022-12-23T12:14:58.483Z,68.65
2022-12-23T12:18:10.140Z,69.30
2022-12-23T12:21:21.906Z,73.06
2022-12-23T12:24:40.089Z,70.69
2022-12-23T12:27:59.527Z,71.51
2022-12-23T12:31:14.368Z,70.67
2022-12-23T12:34:39.381Z,69.96
2022-12-23T12:37:51.162Z,71.31
2022-12-23T12:41:04.309Z,70.44
2022-12-23T12:44:17.758Z,70.42
2022-12-23T12:47:53.454Z,69.41
2022-12-23T12:51:17.784Z,69.57
2022-12-23T12:54:37.392Z,69.24
2022-12-23T12:57:42.529Z,69.01
2022-12-23T13:01:06.101Z,69.05
2022-12-23T13:04:46.169Z,69.44
2022-12-23T13:08:26.913Z,68.93
2022-12-23T13:12:16.481Z,68.86
2022-12-23T13:15:31.742Z,67.93
2022-12-23T13:18:38.701Z,68.66
2022-12-23T13:22:05.179Z,68.35
2022-12-23T13:25:41.136Z,68.63
2022-12-23T13:28:57.950Z,68.58
2022-12-23T13:32:32.719Z,68.56
2022-12-23T13:35:59.719Z,67.47
2022-12-23T13:39:19.480Z,68.38
2022-12-23T13:42:35.121Z,68.25
2022-12-23T13:45:44.012Z,68.35
2022-12-23T13:48:54.479Z,67.59
2022-12-23T13:52:18.764Z,67.49
2022-12-23T13:55:30.216Z,67.66
2022-12-23T13:58:35.658Z,68.21
2022-12-23T14:01:47.980Z,67.75
2022-12-23T14:04:59.753Z,68.46
2022-12-23T14:08:34.815Z,68.19
2022-12-23T14:11:39.842Z,67.84
2022-12-23T14:15:00.524Z,68.84
2022-12-23T14:18:34.966Z,68.82
2022-12-23T14:22:34.836Z,67.98
2022-12-23T14:26:02.071Z,68.68
2022-12-23T14:29:19.937Z,68.60
2022-12-23T14:32:31.029Z,68.44
2022-12-23T14:35:42.152Z,67.71
2022-12-23T14:39:13.044Z,68.64
2022-12-23T14:42:42.584Z,68.19
2022-12-23T14:45:47.266Z,68.61
2022-12-23T14:49:09.635Z,68.63
2022-12-23T14:52:44.664Z,68.08
2022-12-23T14:55:51.501Z,68.00
2022-12-23T14:59:17.222Z,68.68
2022-12-23T15:02:36.707Z,68.25
2022-12-23T15:05:42.167Z,68.55
2022-12-23T15:08:48.950Z,69.15
2022-12-23T15:11:57.168Z,69.12
2022-12-23T15:15:26.148Z,69.40
2022-12-23T15:18:30.910Z,69.96
2022-12-23T15:21:37.061Z,69.10
2022-12-23T15:24:43.518Z,69.16
2022-12-23T15:27:48.289Z,69.83
2022-12-23T15:30:57.928Z,69.96
2022-12-23T15:34:16.804Z,68.87
2022-12-23T15:37:33.214Z,68.73
2022-12-23T15:40:39.596Z,69.12
2022-12-23T15:43:45.816Z,69.02
2022-12-23T15:46:51.397Z,69.43
2022-12-23T15:50:02.664Z,68.43
2022-12-23T15:53:09.841Z,68.71
2022-12-23T15:56:30.596Z,68.70
2022-12-23T15:59:39.515Z,68.57
2022-12-23T16:03:02.920Z,68.60
2022-12-23T16:06:17.462Z,68.31
2022-12-23T16:09:22.469Z,68.66
2022-12-23T16:12:28.932Z,68.92
2022-12-23T16:15:34.512Z,68.02
2022-12-23T16:18:47.220Z,68.04
2022-12-23T16:21:52.424Z,68.46
2022-12-23T16:25:12.679Z,68.51
2022-12-23T16:28:24.862Z,68.25
2022-12-23T16:31:29.504Z,67.25
2022-12-23T16:34:34.131Z,68.00
2022-12-23T16:37:38.609Z,67.63
2022-12-23T16:40:44.798Z,68.28
2022-12-23T16:43:52.494Z,67.38
2022-12-23T16:46:57.507Z,67.66
2022-12-23T16:50:02.078Z,67.37
2022-12-23T16:53:06.697Z,67.42
2022-12-23T16:56:20.037Z,66.21
2022-12-23T16:59:25.752Z,67.06
2022-12-23T17:02:30.978Z,66.54
2022-12-23T17:05:36.002Z,66.53
2022-12-23T17:09:00.777Z,66.46
2022-12-23T17:12:06.016Z,66.45
2022-12-23T17:15:44.967Z,66.90
2022-12-23T17:18:51.263Z,66.01
2022-12-23T17:22:01.219Z,66.71
2022-12-23T17:25:06.217Z,66.17
2022-12-23T17:28:12.109Z,65.39
2022-12-23T17:31:26.343Z,65.69
2022-12-23T17:34:31.487Z,65.29
2022-12-23T17:37:36.641Z,65.32
2022-12-23T17:40:41.285Z,65.75
2022-12-23T17:43:46.309Z,65.91
2022-12-23T17:46:50.739Z,66.46
2022-12-23T17:49:55.291Z,65.90
2022-12-23T17:52:59.927Z,66.17
2022-12-23T17:56:04.548Z,66.50
2022-12-23T17:59:09.522Z,66.41
2022-12-23T18:02:36.273Z,66.44
2022-12-23T18:05:41.732Z,66.17
2022-12-23T18:08:47.205Z,65.25
2022-12-23T18:11:51.869Z,65.78
2022-12-23T18:14:58.089Z,66.16
2022-12-23T18:18:02.936Z,65.75
2022-12-23T18:21:07.693Z,66.63
2022-12-23T18:24:12.606Z,66.83
2022-12-23T18:27:19.820Z,66.37
2022-12-23T18:30:24.577Z,65.98
2022-12-23T18:33:31.128Z,66.23
2022-12-23T18:36:36.096Z,66.08
2022-12-23T18:39:40.769Z,65.80
2022-12-23T18:42:47.139Z,66.21
2022-12-23T18:45:54.356Z,66.14
2022-12-23T18:48:59.404Z,65.79
2022-12-23T18:52:08.243Z,66.76
2022-12-23T18:55:13.689Z,66.00
2022-12-23T18:58:21.528Z,65.80
2022-12-23T19:01:26.051Z,65.84
2022-12-23T19:04:30.848Z,65.97
2022-12-23T19:07:35.962Z,65.66
2022-12-23T19:10:40.932Z,65.74
2022-12-23T19:13:46.690Z,64.78
2022-12-23T19:16:52.385Z,65.45
2022-12-23T19:19:57.131Z,64.88
2022-12-23T19:23:01.665Z,64.96
2022-12-23T19:26:07.158Z,64.91
2022-12-23T19:29:11.864Z,65.69
2022-12-23T19:32:16.714Z,65.04
2022-12-23T19:35:21.942Z,64.75
2022-12-23T19:38:27.522Z,64.86
2022-12-23T19:41:32.279Z,64.56
2022-12-23T19:44:36.887Z,64.66
2022-12-23T19:47:41.441Z,64.56
2022-12-23T19:50:45.774Z,64.51
2022-12-23T19:53:52.637Z,64.66
2022-12-23T19:56:57.174Z,65.07
2022-12-23T20:00:03.532Z,65.01
2022-12-23T20:03:16.594Z,64.90
2022-12-23T20:06:25.629Z,63.90
2022-12-23T20:09:30.139Z,63.98
2022-12-23T20:12:34.733Z,63.72
2022-12-23T20:15:39.248Z,63.74
2022-12-23T20:19:02.537Z,64.41
2022-12-23T20:22:25.347Z,64.21
2022-12-23T20:25:30.429Z,63.87
2022-12-23T20:28:35.444Z,64.49
2022-12-23T20:31:40.673Z,64.51
2022-12-23T20:34:45.236Z,65.21
2022-12-23T20:37:49.803Z,65.35
2022-12-23T20:40:54.333Z,65.47
2022-12-23T20:47:24.176Z,65.76
2022-12-23T20:50:28.557Z,65.41
2022-12-23T20:53:33.465Z,65.13
2022-12-23T20:56:37.933Z,64.73
2022-12-23T20:59:42.589Z,64.26
2022-12-23T21:02:47.326Z,64.67
2022-12-23T21:05:51.899Z,64.72
2022-12-23T21:08:58.972Z,64.18
2022-12-23T21:12:03.839Z,65.07
2022-12-23T21:15:09.775Z,64.83
2022-12-23T21:18:14.217Z,64.89
2022-12-23T21:21:18.614Z,65.20
2022-12-23T21:24:23.172Z,64.72
2022-12-23T21:27:27.879Z,65.13
2022-12-23T21:30:32.265Z,64.59
2022-12-23T21:33:39.302Z,64.05
2022-12-23T21:36:44.369Z,63.13
2022-12-23T21:39:49.042Z,62.97
2022-12-23T21:42:53.558Z,63.62
2022-12-23T21:46:06.721Z,63.55
2022-12-23T21:49:12.048Z,63.39
2022-12-23T21:52:16.593Z,63.33
2022-12-23T21:55:21.177Z,63.98
2022-12-23T21:58:26.597Z,63.41
2022-12-23T22:01:31.673Z,63.75
2022-12-23T22:04:36.191Z,63.27
2022-12-23T22:07:40.798Z,64.15
2022-12-23T22:10:46.419Z,63.10
2022-12-23T22:13:51.171Z,63.16
2022-12-23T22:16:55.722Z,64.27
2022-12-23T22:20:00.211Z,63.87
2022-12-23T22:23:05.098Z,64.59
2022-12-23T22:26:15.506Z,64.31
2022-12-23T22:29:23.124Z,64.89
2022-12-23T22:32:27.953Z,64.27
2022-12-23T22:35:32.379Z,64.73
2022-12-23T22:38:36.989Z,63.85
2022-12-23T22:41:41.429Z,64.72
2022-12-23T22:44:45.873Z,64.93
2022-12-23T22:47:50.657Z,64.33
2022-12-23T22:51:03.693Z,64.09
2022-12-23T22:54:08.561Z,64.23
2022-12-23T22:57:12.901Z,63.88
2022-12-23T23:00:17.923Z,64.37
2022-12-23T23:03:22.747Z,63.86
2022-12-23T23:06:35.729Z,65.11
2022-12-23T23:09:40.263Z,66.20
2022-12-23T23:12:45.179Z,64.69
2022-12-23T23:15:50.117Z,64.88
2022-12-23T23:18:55.291Z,64.44
2022-12-23T23:21:59.505Z,64.88
2022-12-23T23:25:04.107Z,64.42
2022-12-23T23:28:08.625Z,64.77
2022-12-23T23:34:38.618Z,64.84
2022-12-23T23:37:43.417Z,64.41
2022-12-23T23:40:54.493Z,64.69
2022-12-23T23:43:58.851Z,64.06
2022-12-23T23:47:03.719Z,64.08
2022-12-23T23:50:09.275Z,63.24
2022-12-23T23:53:14.634Z,63.38
2022-12-23T23:56:24.793Z,63.43
2022-12-23T23:59:30.254Z,63.46
